Latest Weather Observations for Cape Moreton

IDQ60901

Issued at 10:11 am EST Friday 15 November 2019 (issued every 10 minutes, with the page automatically refreshed every 10 minutes)

About weather observations | Map of Brisbane area stations | Latest observations for Brisbane area | Other Formats
Station Details ID: 040043 Name: CAPE MORETON LIGHTHOUSE Lat: -27.03 Lon: 153.47 Height: 99.9 m
Data from the previous 72 hours. | See also: Recent months at Cape Moreton
Date/Time
EST
Temp
°C
App
Temp
°C
Dew
Point
°C
Rel
Hum
%
Delta-T
°C
Wind Press
QNH
hPa
Press
MSL
hPa
Rain since
9am
mm
Dir  Spd
km/h
Gust
km/h
Spd
kts
Gust
kts
15/10:00am 24.7 27.2 21.0 80 2.4 NNW 9 13 5 7 1015.3 1014.9 0.0
15/09:30am 24.0 25.7 20.9 83 2.0 NW 13 15 7 8 1015.4 1015.0 0.0
15/09:00am 24.1 25.5 20.4 80 2.4 NW 13 17 7 9 1015.6 1015.2 0.0
15/08:30am 23.6 25.7 20.9 85 1.8 NW 11 15 6 8 1015.5 1015.1 0.0
15/08:00am 23.1 24.8 21.0 88 1.4 NW 13 17 7 9 1015.5 1015.1 0.0
15/07:30am 22.8 25.3 21.1 90 1.1 NW 9 13 5 7 1015.4 1015.0 0.0
15/07:00am 22.4 25.2 20.9 91 1.0 NW 7 11 4 6 1015.2 1014.8 0.0
15/06:30am 22.3 25.3 20.9 92 0.9 NNW 6 7 3 4 1015.0 1014.6 0.0
15/06:00am 22.0 26.1 20.8 93 0.8 CALM 0 0 0 0 1014.7 1014.2 0.0
15/05:30am 21.9 24.9 20.9 94 0.7 E 6 7 3 4 1014.2 1013.7 0.0
15/05:00am 21.5 25.5 20.5 94 0.6 CALM 0 0 0 0 1013.9 1013.4 0.0
15/04:30am 21.5 25.5 20.5 94 0.6 CALM 0 6 0 3 1013.7 1013.2 0.0
15/04:00am 21.6 24.8 20.6 94 0.6 ENE 4 7 2 4 1013.7 1013.2 0.0
15/03:30am 21.6 25.5 20.4 93 0.8 CALM 0 6 0 3 1013.4 1012.9 0.0
15/03:00am 21.7 25.3 20.5 93 0.8 NNE 2 6 1 3 1013.6 1013.1 0.0
15/02:30am 21.6 24.2 20.4 93 0.8 NNE 7 11 4 6 1013.8 1013.3 0.0
15/02:00am 21.7 23.9 20.3 92 0.9 NE 9 11 5 6 1013.7 1013.2 0.0
15/01:30am 21.7 23.9 20.3 92 0.9 ENE 9 13 5 7 1013.8 1013.3 0.0
15/01:00am 21.7 23.0 20.2 91 1.0 ENE 13 15 7 8 1014.1 1013.6 0.0
15/12:30am 21.8 22.7 20.1 90 1.1 ENE 15 20 8 11 1014.4 1013.9 0.0
15/12:00am 21.8 21.9 19.9 89 1.2 ENE 19 20 10 11 1014.7 1014.2 0.0
 
Date/Time
EST
Temp
°C
App
Temp
°C
Dew
Point
°C
Rel
Hum
%
Delta-T
°C
Wind Press
QNH
hPa
Press
MSL
hPa
Rain since
9am
mm
Dir  Spd
km/h
Gust
km/h
Spd
kts
Gust
kts
14/11:30pm 21.8 22.1 19.7 88 1.3 ENE 17 20 9 11 1015.0 1014.6 0.0
14/11:00pm 21.8 22.4 19.5 87 1.5 ENE 15 17 8 9 1015.2 1014.8 0.0
14/10:30pm 21.8 22.1 19.5 87 1.5 E 17 20 9 11 1015.2 1014.8 0.0
14/10:00pm 21.7 21.5 19.4 87 1.5 ENE 19 20 10 11 1015.0 1014.6 0.0
14/09:30pm 21.7 21.3 19.4 87 1.5 ENE 20 24 11 13 1014.8 1014.3 0.0
14/09:00pm 21.7 20.9 19.3 86 1.5 ENE 22 28 12 15 1014.6 1014.1 0.0
14/08:30pm 21.8 21.1 19.4 86 1.5 ENE 22 26 12 14 1014.5 1014.0 0.0
14/08:00pm 21.5 20.6 19.1 86 1.5 ENE 22 26 12 14 1014.3 1013.8 0.0
14/07:30pm 21.7 20.8 19.1 85 1.7 ENE 22 26 12 14 1014.1 1013.6 0.0
14/07:00pm 21.7 20.4 19.1 85 1.7 ENE 24 28 13 15 1013.7 1013.2 0.0
14/06:30pm 21.6 19.7 18.6 83 1.9 ENE 26 32 14 17 1013.2 1012.7 0.0
14/06:00pm 21.7 19.7 18.3 81 2.1 ENE 26 32 14 17 1012.8 1012.3 0.0
14/05:30pm 21.9 19.4 18.1 79 2.4 ENE 28 33 15 18 1012.4 1012.0 0.0
14/05:00pm 22.2 19.8 18.2 78 2.5 ENE 28 33 15 18 1012.2 1011.8 0.0
14/04:30pm 22.4 20.0 18.2 77 2.6 ENE 28 32 15 17 1012.2 1011.8 0.0
14/04:00pm 22.6 19.7 17.9 75 2.9 ENE 30 33 16 18 1012.1 1011.7 0.0
14/03:30pm 22.8 20.0 17.3 71 3.4 ENE 28 32 15 17 1012.3 1011.9 0.0
14/03:00pm 23.2 20.3 17.0 68 3.8 E 28 32 15 17 1012.7 1012.2 0.0
14/02:30pm 24.4 22.2 16.9 63 4.6 E 24 28 13 15 1013.0 1012.5 0.0
14/02:00pm 25.0 22.8 17.0 61 5.0 E 24 28 13 15 1013.4 1012.9 0.0
14/01:30pm 25.4 23.7 16.3 57 5.6 E 20 24 11 13 1013.6 1013.1 0.0
14/01:00pm 25.1 23.1 14.9 53 6.1 E 19 22 10 12 1014.1 1013.6 0.0
14/12:30pm 25.4 23.8 15.1 53 6.2 E 17 19 9 10 1014.5 1014.0 0.0
14/12:00pm 25.5 24.0 15.2 53 6.2 ESE 17 20 9 11 1014.9 1014.5 0.0
14/11:30am 25.2 23.7 16.4 58 5.4 ESE 19 20 10 11 1015.2 1014.8 0.0
14/11:00am 25.1 23.2 15.1 53 6.0 ESE 19 22 10 12 1015.6 1015.2 0.0
14/10:30am 25.6 24.1 15.3 53 6.2 ESE 17 20 9 11 1016.0 1015.6 0.0
14/10:00am 24.9 23.6 15.8 57 5.5 ESE 17 20 9 11 1016.4 1016.0 0.0
14/09:30am 25.7 25.0 16.5 56 5.7 SE 15 19 8 10 1016.7 1016.3 0.0
14/09:00am 24.6 23.5 16.3 60 5.1 SE 17 20 9 11 1016.6 1016.2 0.0
14/08:30am 24.0 22.4 16.5 63 4.6 ESE 20 24 11 13 1016.6 1016.2 0.0
14/08:00am 23.6 22.0 16.4 64 4.4 ESE 20 24 11 13 1016.5 1016.1 0.0
14/07:30am 23.0 20.9 16.3 66 4.1 ESE 22 28 12 15 1016.3 1015.9 0.0
14/07:00am 22.5 20.0 16.1 67 3.9 ESE 24 28 13 15 1016.0 1015.6 0.0
14/06:30am 22.1 19.7 16.4 70 3.5 ESE 24 28 13 15 1015.6 1015.2 0.0
14/06:00am 21.3 18.6 16.5 74 2.9 ESE 26 32 14 17 1015.3 1014.9 0.0
14/05:30am 20.5 17.1 15.9 75 2.8 SE 28 32 15 17 1015.1 1014.7 0.0
14/05:00am 20.4 17.2 16.2 77 2.5 SE 28 32 15 17 1014.7 1014.2 0.0
14/04:30am 20.2 17.3 16.0 77 2.5 SE 26 30 14 16 1014.5 1014.0 0.0
14/04:00am 20.1 16.9 15.3 74 2.8 SE 26 33 14 18 1014.3 1013.8 0.0
14/03:30am 20.3 17.9 16.3 78 2.4 ESE 24 30 13 16 1014.1 1013.6 0.0
14/03:00am 20.2 18.2 16.4 79 2.3 ESE 22 28 12 15 1014.1 1013.6 0.0
14/02:30am 20.6 18.0 16.8 79 2.3 ESE 26 30 14 16 1014.0 1013.5 0.0
14/02:00am 20.4 17.6 16.4 78 2.4 ESE 26 32 14 17 1014.0 1013.5 0.0
14/01:30am 20.5 17.1 16.7 79 2.3 ESE 30 35 16 19 1013.9 1013.4 0.0
14/01:00am 20.6 16.8 16.8 79 2.3 ESE 32 37 17 20 1013.9 1013.4 0.0
14/12:30am 20.7 17.3 16.7 78 2.4 ESE 30 37 16 20 1014.1 1013.6 0.0
14/12:00am 20.9 17.3 17.1 79 2.3 ESE 32 37 17 20 1014.2 1013.7 0.0
 
Date/Time
EST
Temp
°C
App
Temp
°C
Dew
Point
°C
Rel
Hum
%
Delta-T
°C
Wind Press
QNH
hPa
Press
MSL
hPa
Rain since
9am
mm
Dir  Spd
km/h
Gust
km/h
Spd
kts
Gust
kts
13/11:30pm 21.0 17.1 17.0 78 2.4 ESE 33 39 18 21 1014.3 1013.8 0.0
13/11:00pm 21.0 16.8 17.2 79 2.3 SE 35 41 19 22 1014.3 1013.8 0.0
13/10:30pm 21.1 17.5 17.1 78 2.5 ESE 32 39 17 21 1014.4 1013.9 0.0
13/10:00pm 21.2 16.9 16.8 76 2.7 ESE 35 43 19 23 1014.6 1014.1 0.0
13/09:30pm 21.5 17.0 17.3 77 2.6 ESE 37 44 20 24 1014.4 1013.9 0.0
13/09:00pm 21.3 16.2 16.9 76 2.7 SE 39 44 21 24 1014.1 1013.6 0.0
13/08:30pm 21.5 17.1 17.5 78 2.5 ESE 37 43 20 23 1014.1 1013.6 0.0
13/08:00pm 21.4 16.7 17.8 80 2.2 ESE 39 46 21 25 1013.6 1013.1 0.0
13/07:30pm 21.6 17.2 18.4 82 2.0 ESE 39 48 21 26 1013.0 1012.5 0.0
13/07:00pm 21.5 16.5 17.9 80 2.2 ESE 41 48 22 26 1012.5 1012.1 0.0
13/06:30pm 21.6 16.2 17.8 79 2.4 SE 43 50 23 27 1012.2 1011.8 0.0
13/06:00pm 21.6 16.0 17.4 77 2.6 SE 43 50 23 27 1011.8 1011.4 0.0
13/05:30pm 22.0 16.6 18.0 78 2.5 SE 43 52 23 28 1011.3 1010.9 0.0
13/05:00pm 22.1 16.0 17.7 76 2.7 SE 46 57 25 31 1010.8 1010.4 0.0
13/04:30pm 22.4 16.4 17.8 75 2.9 SE 46 56 25 30 1010.6 1010.2 0.0
13/04:00pm 22.6 16.2 17.9 75 2.9 SE 48 57 26 31 1010.2 1009.8 0.0
13/03:30pm 23.1 17.4 18.6 76 2.8 ESE 46 56 25 30 1009.6 1009.2 0.0
13/03:00pm 24.2 19.5 19.9 77 2.8 ESE 44 57 24 31 1009.6 1009.2 0.0
13/02:30pm 24.4 19.8 19.7 75 3.0 ESE 43 54 23 29 1009.6 1009.2 0.0
13/02:00pm 25.6 23.9 19.9 70 3.7 SE 28 37 15 20 1009.9 1009.5 0.0
13/01:30pm 26.2 26.0 19.8 68 4.2 NE 20 28 11 15 1009.8 1009.4 0.0
13/01:00pm 26.3 26.7 19.9 68 4.2 ENE 17 20 9 11 1010.2 1009.8 0.0
13/12:30pm 26.4 26.2 19.8 67 4.3 NNE 20 28 11 15 1010.2 1009.8 0.0
13/12:00pm 26.6 26.3 19.2 64 4.8 N 19 28 10 15 1010.6 1010.2 0.0
13/11:30am 26.1 26.4 19.5 67 4.3 N 17 26 9 14 1011.1 1010.7 0.0
13/11:00am 25.3 23.1 18.7 67 4.2 NNW 28 41 15 22 1011.2 1010.8 0.0
13/10:30am 25.9 25.6 19.5 68 4.1 N 20 32 11 17 1011.6 1011.2 0.0
13/10:00am 24.6 22.1 18.1 67 4.1 N 28 35 15 19 1011.7 1011.3 0.0
13/09:30am 24.6 23.4 18.5 69 3.9 NNW 22 30 12 16 1012.1 1011.7 0.0
13/09:00am 24.1 22.9 18.5 71 3.6 NNW 22 33 12 18 1012.1 1011.7 0.0
13/08:30am 23.5 20.5 18.6 74 3.1 NNW 32 43 17 23 1011.3 1010.9 0.0
13/08:00am 22.9 19.1 18.0 74 3.1 NNW 35 50 19 27 1011.0 1010.6 0.0
13/07:30am 22.5 17.9 18.1 76 2.8 NW 39 54 21 29 1011.2 1010.8 0.0
13/07:00am 22.1 17.1 17.9 77 2.6 NW 41 56 22 30 1011.3 1010.9 0.0
13/06:30am 22.0 16.6 17.8 77 2.6 NW 43 54 23 29 1011.0 1010.6 0.0
13/06:00am 21.6 17.9 17.4 77 2.6 NW 33 44 18 24 1011.1 1010.7 0.0
13/05:30am 21.6 17.0 18.0 80 2.2 NW 39 50 21 27 1010.4 1010.0 0.0
13/05:00am 21.5 16.5 17.9 80 2.2 NW 41 54 22 29 1010.1 1009.7 0.0
13/04:30am 21.5 16.2 18.1 81 2.1 NNW 43 57 23 31 1009.9 1009.5 0.0
13/04:14am 21.6 17.4 18.8 84 1.8 NNW 39 57 21 31 1009.6 1009.2 0.0
13/04:00am 21.5 16.3 18.3 82 2.0 NNW 43 57 23 31 1009.3 1008.9 0.0
13/03:30am 21.4 15.9 18.0 81 2.1 NNW 44 61 24 33 1009.3 1008.9 0.0
13/03:00am 21.6 15.6 18.6 83 1.9 NNW 48 63 26 34 1009.4 1009.0 0.0
13/02:30am 21.5 16.1 18.3 82 2.0 NNW 44 59 24 32 1009.5 1009.1 0.0
13/02:00am 21.5 16.1 18.3 82 2.0 NNW 44 63 24 34 1009.6 1009.2 0.0
13/01:30am 21.9 15.9 18.7 82 2.0 NNW 48 69 26 37 1009.7 1009.3 0.0
13/01:07am 21.7 16.9 18.3 81 2.1 NNW 41 63 22 34 1009.7 1009.3 0.0
13/01:00am 21.9 17.1 18.5 81 2.1 NNW 41 56 22 30 1009.8 1009.4 0.0
13/12:30am 21.8 17.8 18.6 82 2.0 NNW 37 56 20 30 1010.4 1010.0 0.0
13/12:19am 21.7 17.7 18.5 82 2.0 NNW 37 57 20 31 1010.4 1010.0 0.0
13/12:00am 21.9 16.5 18.3 80 2.3 NNW 44 59 24 32 1010.7 1010.3 0.0
 
Date/Time
EST
Temp
°C
App
Temp
°C
Dew
Point
°C
Rel
Hum
%
Delta-T
°C
Wind Press
QNH
hPa
Press
MSL
hPa
Rain since
9am
mm
Dir  Spd
km/h
Gust
km/h
Spd
kts
Gust
kts
12/11:30pm 22.1 16.6 18.1 78 2.5 NNW 44 63 24 34 1010.5 1010.1 0.0
12/11:00pm 22.2 17.2 18.8 81 2.2 NNW 43 63 23 34 1010.8 1010.4 0.0
12/10:30pm 22.3 17.5 18.3 78 2.5 NNW 41 61 22 33 1011.0 1010.6 0.0
12/10:13pm 22.4 18.0 19.4 83 1.9 NNW 41 59 22 32 1011.0 1010.6 0.0
12/10:00pm 22.5 16.7 19.1 81 2.2 NNW 48 61 26 33 1010.9 1010.5 0.0
12/09:30pm 22.6 17.3 18.6 78 2.5 NNW 44 61 24 33 1011.1 1010.7 0.0
12/09:04pm 22.9 17.6 18.2 75 3.0 NNW 43 63 23 34 1011.1 1010.7 0.0
12/09:00pm 22.9 17.7 18.4 76 2.8 NNW 43 57 23 31 1011.1 1010.7 0.0
12/08:31pm 23.0 17.0 18.7 77 2.7 N 48 67 26 36 1011.2 1010.8 0.0
12/08:30pm 22.8 17.1 18.6 77 2.7 N 46 61 25 33 1011.2 1010.8 0.0
12/08:00pm 22.9 16.6 19.7 82 2.1 N 52 67 28 36 1011.0 1010.6 0.0
12/07:30pm 23.2 16.1 18.9 77 2.7 N 54 67 29 36 1010.8 1010.4 0.0
12/07:03pm 23.0 17.2 19.2 79 2.4 N 48 67 26 36 1010.6 1010.2 0.0
12/07:00pm 23.1 17.0 19.3 79 2.4 N 50 67 27 36 1010.6 1010.2 0.0
12/06:39pm 23.1 17.7 19.1 78 2.6 N 46 65 25 35 1010.5 1010.1 0.0
12/06:30pm 23.1 17.7 19.1 78 2.6 N 46 63 25 34 1010.4 1010.0 0.0
12/06:04pm 23.2 18.6 18.9 77 2.7 N 41 59 22 32 1010.2 1009.8 0.0
12/06:00pm 23.2 18.1 18.7 76 2.9 N 43 57 23 31 1010.2 1009.8 0.0
12/05:43pm 23.2 19.1 19.2 78 2.6 N 39 57 21 31 1010.0 1009.6 0.0
12/05:30pm 23.3 19.1 19.0 77 2.7 N 39 56 21 30 1009.9 1009.5 0.0
12/05:01pm 23.6 20.0 19.3 77 2.8 N 37 56 20 30 1009.9 1009.5 0.0
12/05:00pm 23.6 19.6 19.3 77 2.8 N 39 56 21 30 1009.9 1009.5 0.0
12/04:37pm 23.6 19.5 19.1 76 2.9 NNE 39 59 21 32 1009.8 1009.4 0.0
12/04:30pm 23.6 19.5 19.1 76 2.9 NNE 39 50 21 27 1009.7 1009.3 0.0
12/04:22pm 23.9 20.3 19.4 76 2.9 NNE 37 56 20 30 1009.9 1009.5 0.0
12/04:00pm 24.0 19.9 19.1 74 3.1 NNE 39 50 21 27 1010.0 1009.6 0.0
12/03:32pm 24.3 20.5 18.9 72 3.4 NNE 37 56 20 30 1010.3 1009.9 0.0
12/03:30pm 24.2 20.1 19.1 73 3.3 NNE 39 56 21 30 1010.3 1009.9 0.0
12/03:14pm 24.5 21.2 19.3 73 3.3 NNE 35 54 19 29 1010.6 1010.2 0.0
12/03:00pm 24.4 21.0 19.0 72 3.5 NNE 35 48 19 26 1010.7 1010.3 0.0
12/02:30pm 24.6 20.9 19.2 72 3.5 NNE 37 52 20 28 1011.2 1010.8 0.0
12/02:00pm 24.7 21.0 19.1 71 3.6 NNE 37 50 20 27 1011.7 1011.3 0.0
12/01:30pm 25.0 21.6 19.1 70 3.8 NNE 35 48 19 26 1012.4 1012.0 0.0
12/01:00pm 25.1 22.3 19.0 69 3.9 NNE 32 46 17 25 1013.2 1012.7 0.0
12/12:30pm 25.2 22.9 19.3 70 3.8 NNE 30 41 16 22 1014.0 1013.5 0.0
12/12:00pm 25.2 23.4 19.6 71 3.6 N 28 41 15 22 1014.6 1014.1 0.0
12/11:30am 25.0 23.2 19.6 72 3.5 N 28 41 15 22 1015.2 1014.8 0.0
12/11:00am 24.2 21.3 19.3 74 3.1 N 33 44 18 24 1015.8 1015.4 0.0
12/10:30am 24.0 20.8 19.5 76 2.9 NNW 35 44 19 24 1016.2 1015.8 0.0

Latest Capital City Observations: Canberra | Sydney | Melbourne | Brisbane | Adelaide | Perth | Hobart | Darwin

Other formats

Comma delimited format used in spreadsheet applications
http://www.bom.gov.au/fwo/IDQ60901/IDQ60901.94594.axf

JavaScript Object Notation format (JSON) in row-major order
http://www.bom.gov.au/fwo/IDQ60901/IDQ60901.94594.json

Data quality

Most of these data are generated automatically and are frequently updated. Quality checks on data are not normally performed. It is possible for incorrect values to appear. Refer to information at About Latest Weather Observations and please check the disclaimer before using these data.